WEATHER DATA

YESTERDAY
Time Temp. Dewp. Hum. Wind dir Wind speed Wind gust Bar. 1h Prec. 24h Prec.
00:04 11.2 8.1 81 242 2.5 3.3 1013.4 0.0000 0.0000
00:14 10.9 7.8 81 235 2.5 3.6 1013.3 0.0000 0.0000
00:24 10.4 7.5 82 247 1.7 3.3 1013.1 0.0000 0.0000
00:34 10 7.1 82 238 1.7 3.1 1012.9 0.0000 0.0000
00:45 9.7 7 83 238 1.9 3.3 1012.8 0.0000 0.0000
00:55 9.5 6.9 84 283 1.7 2.8 1012.7 0.0000 0.0000
01:04 9.4 6.8 84 231 2.5 4.2 1012.6 0.0000 0.0000
01:15 9.2 6.8 85 230 2.5 3.6 1012.6 0.0000 0.0000
01:25 9.1 6.7 85 233 1.9 3.6 1012.5 0.0000 0.0000
01:35 9.1 6.9 86 235 1.9 3.6 1012.3 0.0000 0.0000
01:45 9.2 7 86 230 2.5 3.6 1012.2 0.0000 0.0000
01:55 9.2 7 86 233 2.5 3.3 1012.2 0.0000 0.0000
02:05 9.1 6.9 86 235 2.5 3.3 1012.1 0.0000 0.0000
02:15 9.1 7.1 87 229 1.9 3.1 1012 0.0000 0.0000
02:25 9.1 7.1 87 230 1.9 3.3 1011.8 0.0000 0.0000
02:36 9 7 87 231 1.9 3.6 1011.8 0.0000 0.0000
02:46 8.9 6.9 87 233 1.9 3.3 1011.7 0.0000 0.0000
02:55 8.7 6.7 87 233 1.9 3.3 1011.6 0.0000 0.0000
03:06 8.6 6.6 87 232 1.9 3.1 1011.3 0.0000 0.0000
03:16 8.5 6.5 87 232 1.9 3.1 1011.2 0.0000 0.0000
03:26 8.4 6.5 88 230 1.9 3.3 1011 0.0000 0.0000
03:36 8.2 6.3 88 230 1.9 3.3 1010.9 0.0000 0.0000
03:46 8.1 6.1 87 240 1.9 3.1 1010.6 0.0000 0.0000
03:56 7.9 6 88 237 1.9 3.3 1010.5 0.0000 0.0000
04:06 7.7 5.8 88 236 2.5 3.3 1010.5 0.0000 0.0000
04:17 7.5 5.6 88 236 1.9 4.4 1010.5 0.0000 0.0000
04:27 7.3 5.4 88 243 1.9 4.2 1010.4 0.0000 0.0000
04:36 7.2 5.3 88 242 2.5 3.6 1010.5 0.0000 0.0000
04:46 7.1 5.2 88 231 2.5 3.6 1010.6 0.0000 0.0000
04:57 7 5.3 89 234 2.5 3.6 1010.5 0.0000 0.0000
05:07 6.9 5.2 89 233 2.5 3.6 1010.3 0.0000 0.0000
05:17 6.9 5.2 89 234 2.5 4.2 1010.4 0.0000 0.0000
05:27 7 5.5 90 232 2.8 3.6 1010.5 0.0000 0.0000
05:37 7.2 5.7 90 232 2.8 3.6 1010.7 0.0000 0.0000
05:47 7.3 5.8 90 238 2.5 4.4 1010.6 0.0000 0.0000
05:57 7.4 5.9 90 234 2.8 4.4 1010.9 0.0000 0.0000
06:08 7.4 5.9 90 231 2.5 4.4 1010.8 0.0000 0.0000
06:18 7.4 5.9 90 233 2.8 3.6 1010.9 0.0000 0.0000
06:27 7.4 5.9 90 233 2.5 3.6 1011 0.0000 0.0000
06:38 7.4 5.9 90 232 2.8 4.2 1011.5 0.0000 0.0000
06:48 7.5 6.1 91 236 2.5 4.2 1011.4 0.0000 0.0000
06:58 7.7 6.3 91 238 2.5 4.4 1011.6 0.0000 0.0000
07:08 8.5 7.6 94 251 2.5 5 1012.3 0.0000 0.0000
07:18 9.3 8.4 94 244 2.8 6.1 1012.7 0.0000 0.0000
07:28 9.8 8.7 93 241 2.8 4.7 1012.6 0.0000 0.0000
07:38 10.2 9 92 240 2.5 4.2 1011.9 0.1010 0.1000
07:48 10.3 9.1 92 240 2.5 4.7 1012.2 0.1010 0.1000
07:59 10.4 9.2 92 247 2.5 4.2 1012.3 0.1010 0.1000
08:09 10.5 9.1 91 252 1.9 4.7 1012.3 0.1010 0.1000
08:18 10.6 9.2 91 249 2.5 3.6 1012.5 0.1010 0.1000
08:29 10.6 9.2 91 246 2.5 3.6 1012.3 0.2020 0.2000
08:39 10.6 9.2 91 252 2.5 4.4 1012.3 0.1010 0.2000
08:49 10.7 9.3 91 244 2.5 4.2 1012.7 0.1010 0.2000
08:59 10.7 9.3 91 246 2.5 3.6 1012.9 0.1010 0.2000
09:09 10.8 9.4 91 242 2.5 4.2 1013 0.1010 0.2000
09:19 10.9 9.7 92 243 2.8 4.4 1012.9 0.1010 0.2000
09:29 11.1 9.9 92 253 1.7 4.2 1012.8 0.0000 0.2000
09:40 11.2 9.9 92 254 1.9 4.2 1012.6 0.0000 0.2000
09:50 11.4 10.1 92 254 2.5 4.2 1012.7 0.0000 0.2000
10:00 11.5 10.2 92 244 2.5 4.7 1012.7 0.0000 0.2000
10:09 11.6 10.3 92 247 2.5 4.2 1013 0.0000 0.2000
10:20 11.6 10.3 92 250 2.8 4.7 1013.1 0.0000 0.2000
10:30 11.6 10.2 91 250 2.5 3.6 1013.1 0.0000 0.2000
10:40 11.6 10.3 92 243 2.5 4.4 1013 0.0000 0.2000
10:50 11.7 10.4 92 249 2.5 4.2 1012.7 0.0000 0.2000
11:00 11.7 10.4 92 250 2.8 5 1012.8 0.0000 0.2000
11:10 11.7 10.3 91 255 2.8 6.1 1012.9 0.0000 0.2000
11:20 11.8 10.4 91 258 2.8 6.4 1012.7 0.0000 0.2000
11:31 11.8 10.4 91 258 2.8 4.2 1012.8 0.0000 0.2000
11:41 11.7 10.3 91 254 2.8 4.7 1013.2 0.0000 0.2000
11:52 11.9 10.6 92 253 2.8 7.5 1013.1 0.0000 0.2000
12:02 12.2 10.9 92 270 2.5 5.6 1012.6 0.0000 0.2000
12:12 12.4 11 91 258 2.8 6.7 1012.8 0.1010 0.3000
12:23 12.4 11 91 250 3.1 7.2 1012.8 0.1010 0.3000
12:33 12.4 10.8 90 245 2.8 7.5 1012.9 0.1010 0.3000
12:42 12.3 10.5 89 246 3.1 6.4 1013 0.1010 0.3000
12:53 12.1 10.3 89 264 2.5 3.6 1012.5 0.1010 0.3000
13:03 12 10.2 89 248 2.8 8.1 1012.2 0.1010 0.3000
13:13 11.8 10 89 242 2.8 4.7 1012.7 0.0000 0.3000
13:30 11.6 9.9 89 244 3.1 7.5 1012.9 0.0000 0.3000
13:40 11.5 9.8 89 243 3.1 6.1 1013.6 0.0000 0.3000
13:51 11.5 9.6 88 239 3.1 4.7 1013.7 0.0000 0.3000
14:00 11.3 9.2 87 243 3.6 6.1 1014 0.0000 0.3000
14:10 11.2 9.1 87 240 2.8 6.7 1014 0.0000 0.3000
14:21 11.1 9 87 250 2.8 4.4 1014.1 0.0000 0.3000
14:31 11.3 9.2 87 248 2.8 6.1 1013.7 0.0000 0.3000
14:43 11.9 10 88 245 3.3 7.5 1014 0.0000 0.3000
14:53 12.2 10.1 87 244 3.3 8.6 1014.1 0.0000 0.3000
15:03 12.4 10 85 239 3.6 8.1 1014.4 0.0000 0.3000
15:13 12.3 9.7 84 242 3.6 7.5 1014.4 0.0000 0.3000
15:23 12.3 9.7 84 248 3.3 6.7 1014.7 0.0000 0.3000
15:33 12.4 9.6 83 248 3.6 10.8 1014.7 0.0000 0.3000
15:44 12.3 9.1 81 241 3.6 6.7 1014.8 0.0000 0.3000
15:54 12.3 9 80 239 4.2 9.4 1015 0.0000 0.3000
16:04 12.1 8.6 79 248 2.8 6.4 1015.4 0.0000 0.3000
16:13 11.9 8.4 79 242 2.8 5.8 1015.6 0.0000 0.3000
16:24 11.6 7.9 78 237 1.9 4.2 1016.1 0.0000 0.3000
16:34 11.4 7.7 78 240 2.5 4.7 1016.4 0.0000 0.3000
16:44 11.1 7.4 78 239 1.9 4.4 1016.8 0.0000 0.3000
16:54 10.8 7.1 78 239 1.9 3.6 1017.1 0.0000 0.3000
17:04 10.6 6.9 78 241 1.9 3.6 1017.3 0.0000 0.3000
17:14 10.3 6.6 78 237 2.5 4.2 1017.5 0.0000 0.3000
17:24 9.9 6.4 79 232 2.5 3.3 1017.5 0.0000 0.3000
17:35 9.5 6 79 231 2.5 3.6 1017.7 0.0000 0.3000
17:45 9.1 5.8 80 240 1.9 4.2 1018.1 0.0000 0.3000
17:55 8.8 5.5 80 240 1.9 4.4 1018.2 0.0000 0.3000
18:05 8.4 5.3 81 236 1.9 3.3 1018.4 0.0000 0.3000
18:15 8.1 5 81 249 1.9 3.3 1018.6 0.0000 0.3000
18:25 7.8 4.9 82 251 1.9 3.3 1018.8 0.0000 0.3000
18:35 7.5 4.6 82 248 1.9 3.6 1018.9 0.0000 0.3000
18:46 7.2 4.5 83 242 1.9 3.1 1019 0.0000 0.3000
18:55 6.9 4.2 83 241 1.9 3.1 1019.2 0.0000 0.3000
19:05 6.6 3.9 83 243 1.9 3.1 1019.5 0.0000 0.3000
19:15 6.3 3.6 83 246 1.9 4.7 1019.6 0.0000 0.3000
19:26 6 3.5 84 256 1.9 3.1 1019.6 0.0000 0.3000
19:36 5.8 3.3 84 247 1.7 3.1 1019.8 0.0000 0.3000
19:45 5.6 3.1 84 240 1.9 3.3 1019.9 0.0000 0.3000
19:56 5.4 3.1 85 254 1.7 3.3 1020.1 0.0000 0.3000
20:06 5.2 2.9 85 249 1.9 3.1 1020.2 0.0000 0.3000
20:16 5.1 3 86 254 1.9 3.3 1020.3 0.0000 0.3000
20:26 5 2.9 86 240 1.9 3.6 1020.4 0.0000 0.3000
20:36 4.8 2.7 86 250 1.9 4.2 1020.5 0.0000 0.3000
20:46 4.6 2.5 86 233 1.9 4.2 1020.8 0.0000 0.3000
20:56 4.5 2.4 86 236 2.5 4.4 1020.8 0.0000 0.3000
21:07 4.3 2.2 86 233 2.5 3.6 1020.8 0.0000 0.3000
21:17 4.1 2 86 235 2.5 4.2 1020.8 0.0000 0.3000
21:26 4.1 2.1 87 235 2.5 4.2 1020.9 0.0000 0.3000
21:36 4 2 87 237 2.8 4.2 1021 0.0000 0.3000
21:47 3.8 1.8 87 235 2.5 4.7 1021 0.0000 0.3000
21:57 3.7 1.7 87 240 2.5 3.6 1021.1 0.0000 0.3000
22:07 3.7 1.9 88 237 2.8 4.7 1021.1 0.0000 0.3000
22:16 3.7 1.9 88 234 2.8 4.4 1021.1 0.0000 0.3000
22:25 3.6 1.8 88 232 3.1 5.6 1021.2 0.0000 0.3000
22:35 3.5 1.7 88 231 2.8 4.2 1021.4 0.0000 0.3000
22:46 3.5 1.7 88 232 2.8 4.4 1021.3 0.0000 0.3000
22:56 3.3 1.3 87 231 2.8 4.4 1021.3 0.0000 0.3000
23:06 3.2 1.4 88 233 2.8 4.4 1021.3 0.0000 0.3000
23:16 3.1 1.3 88 233 3.1 5 1021.3 0.0000 0.3000
23:26 3.1 1.3 88 232 2.8 4.7 1021.3 0.0000 0.3000
23:36 3 1.2 88 235 2.8 4.4 1021.3 0.0000 0.3000
23:46 2.9 1.1 88 235 2.5 4.4 1021.3 0.0000 0.3000
23:56 2.8 1 88 237 2.8 4.7 1021.4 0.0000

DAY STATISTIC

2021-08-01
TEMPERATURE
AVERAGE
8.8
HIGH
12.4
12:12
LOW
2.8
23:56
PRESSURE
AVERAGE
1014.8
HIGH
1021.4
22:35
LOW
1010.3
05:07
DEWPOINT
AVERAGE
6.7
HIGH
11.0
12:12
LOW
1.0
23:56
HUMIDITY
AVERAGE
87
HIGH
94
07:08
LOW
78
16:24
WIND SPEED
AVERAGE
2.5
HIGH
4.2
15:54
WIND GUST
AVERAGE
4.5
HIGH
10.8
15:33
WIND DIRECTION
PREVAILING
SW
75.4%
N
0.0
NE
0.0
E
0.0
SE
0.0
S
0.0
SW
75.4
W
24.6
NW
0.0
PRECIPITATION
RAIN HOUR
0.2
RAIN DAY
0.3
TEMPERATURE (°C)
LOW
2.8
HIGH
12.4
AVERAGE
8.8
PRESSURE (hpa)
LOW
1010.3
HIGH
1021.4
AVERAGE
1014.8
DEVICE